Flight Track Log - Related Links

Times and Time Zones

All times are in EDT time to prevent confusion due to time zone crossing. See the FLG3738 flight status page for this flight to view local times or setup timezone preferences in your user account.

Time Position Orientation Groundspeed Altitude Reporting Facility
EDT Latitude Longitude Course Direction KTS MPH feet Rate Location/Type
Fri 12:40:38 PM 44.9000 -93.2333 66° East 157 181 1,700  Level Minneapolis TRACON
Fri 12:41:38 PM 44.9500 -93.2667 335° Northwest 200 230 3,600 1,880 Climbing Minneapolis TRACON
Fri 12:42:01 PM 44.9653 -93.2733 343° North 207 238 4,300 2,259 Climbing Minneapolis Center
Fri 12:43:03 PM 45.0328 -93.2856 353° North 257 296 6,800 1,355 Climbing Minneapolis Center
Fri 12:44:00 PM 44.9992 -92.7491 69° East  Level FlightAware Approximate
Fri 12:44:05 PM 45.0897 -93.2231 38° Northeast 260 299 7,100  Level Minneapolis Center
Fri 12:45:00 PM 45.0326 -92.6319 66° East  Level FlightAware Approximate
Fri 12:45:07 PM 45.1169 -93.1250 68° East 275 316 9,600  Level Minneapolis Center
Fri 12:46:09 PM 45.1400 -93.0136 74° East 292 336 11,300 1,694 Climbing Minneapolis Center
Fri 12:47:11 PM 45.1697 -92.8831 72° East 344 396 13,100 1,790 Climbing Minneapolis Center
Fri 12:48:13 PM 45.2006 -92.7481 72° East 358 412 15,000 919 Climbing Minneapolis Center
Fri 12:49:15 PM 45.2400 -92.5764 72° East 385 443 15,000 48 Level Minneapolis Center
Fri 12:50:17 PM 45.2486 -92.4286 85° East 384 442 15,100 -48 Climbing Minneapolis Center
Fri 12:51:20 PM 45.2239 -92.2806 103° East 384 442 14,900 -96 Descending Minneapolis Center
Fri 12:52:22 PM 45.1992 -92.1308 103° East 389 448 14,900  Level Minneapolis Center
Fri 12:53:24 PM 45.1753 -91.9825 103° East 388 447 14,900  Level Minneapolis Center
Fri 12:54:26 PM 45.1497 -91.8358 104° East 385 443 14,900  Level Minneapolis Center
Fri 12:55:28 PM 45.1231 -91.6606 102° East 382 440 14,900  Level Minneapolis Center
Fri 12:56:30 PM 45.0958 -91.5097 104° East 384 442 14,900  Level Minneapolis Center
Fri 12:57:32 PM 45.0714 -91.3558 103° East 384 442 14,900  Level Minneapolis Center
Fri 12:58:34 PM 45.0458 -91.2036 103° East 381 438 14,900 -629 Level Minneapolis Center
Fri 12:59:36 PM 45.0214 -91.0533 103° East 377 434 13,600 -1,306 Descending Minneapolis Center
Fri 01:00:38 PM 44.9994 -90.9283 104° East 346 398 12,200 -1,500 Descending Minneapolis Center
Fri 01:01:40 PM 44.9792 -90.8086 103° East 306 352 10,500 -1,548 Descending Minneapolis Center
Fri 01:02:42 PM 44.9597 -90.6972 104° East 282 325 9,000 -726 Descending Minneapolis Center
Fri 01:03:44 PM 44.9408 -90.5889 104° East 274 315 9,000  Level Minneapolis Center
Fri 01:04:46 PM 44.9222 -90.4792 103° East 276 318 9,000 -774 Level Minneapolis Center
Fri 01:05:48 PM 44.9031 -90.3706 104° East 273 314 7,400 -968 Descending Minneapolis Center
Fri 01:06:50 PM 44.8858 -90.2736 104° East 266 306 7,000 -629 Descending Minneapolis Center
Fri 01:07:52 PM 44.8706 -90.1867 104° East 226 260 6,100 -1,283 Descending Minneapolis Center
Fri 01:09:00 PM 44.8464 -90.0647 106° East  Level FlightAware Approximate
Fri 01:09:57 PM 44.8394 -90.0111 106° East 222 255 3,000  Level Minneapolis Center
Fri 01:10:59 PM 44.8239 -89.9272 105° East 216 249 3,000  Level Minneapolis Center
Fri 01:12:01 PM 44.7886 -89.8564 125° Southeast 211 243 3,000  Level Minneapolis Center

Login

Don't have an account? Register now (free) for customized features, flight alerts, and more!